sensor_id;sensor_type;location;lat;lon;timestamp;temperature;humidity
59208;DHT22;44977;53.132;6.408;2024-01-10T00:03:38;-3.30;99.90
59208;DHT22;44977;53.132;6.408;2024-01-10T00:08:39;-3.30;99.90
59208;DHT22;44977;53.132;6.408;2024-01-10T00:13:39;-3.30;99.90
59208;DHT22;44977;53.132;6.408;2024-01-10T00:18:40;-3.30;99.90
59208;DHT22;44977;53.132;6.408;2024-01-10T00:23:41;-3.40;99.90
59208;DHT22;44977;53.132;6.408;2024-01-10T00:28:41;-3.40;99.90
59208;DHT22;44977;53.132;6.408;2024-01-10T00:33:42;-3.40;99.90
59208;DHT22;44977;53.132;6.408;2024-01-10T00:38:43;-3.40;99.90
59208;DHT22;44977;53.132;6.408;2024-01-10T00:43:44;-3.50;99.90
59208;DHT22;44977;53.132;6.408;2024-01-10T00:48:44;-3.50;99.90
59208;DHT22;44977;53.132;6.408;2024-01-10T00:53:46;-3.50;99.90
59208;DHT22;44977;53.132;6.408;2024-01-10T00:58:47;-3.50;99.90
59208;DHT22;44977;53.132;6.408;2024-01-10T01:03:47;-3.50;99.90
59208;DHT22;44977;53.132;6.408;2024-01-10T01:08:48;-3.50;99.90
59208;DHT22;44977;53.132;6.408;2024-01-10T01:13:50;-3.50;99.90
59208;DHT22;44977;53.132;6.408;2024-01-10T01:18:51;-3.60;99.90
59208;DHT22;44977;53.132;6.408;2024-01-10T01:23:51;-3.60;99.90
59208;DHT22;44977;53.132;6.408;2024-01-10T01:28:52;-3.60;99.90
59208;DHT22;44977;53.132;6.408;2024-01-10T01:33:53;-3.60;99.90
59208;DHT22;44977;53.132;6.408;2024-01-10T01:38:53;-3.60;99.90
59208;DHT22;44977;53.132;6.408;2024-01-10T01:43:54;-3.60;99.90
59208;DHT22;44977;53.132;6.408;2024-01-10T01:48:55;-3.60;99.90
59208;DHT22;44977;53.132;6.408;2024-01-10T01:53:56;-3.60;99.90
59208;DHT22;44977;53.132;6.408;2024-01-10T01:58:57;-3.60;99.90
59208;DHT22;44977;53.132;6.408;2024-01-10T02:03:59;-3.60;99.90
59208;DHT22;44977;53.132;6.408;2024-01-10T02:09:01;-3.60;99.90
59208;DHT22;44977;53.132;6.408;2024-01-10T02:14:02;-3.60;99.90
59208;DHT22;44977;53.132;6.408;2024-01-10T02:19:26;-3.60;99.90
59208;DHT22;44977;53.132;6.408;2024-01-10T02:24:28;-3.60;99.90
59208;DHT22;44977;53.132;6.408;2024-01-10T02:29:30;-3.60;99.90
59208;DHT22;44977;53.132;6.408;2024-01-10T02:34:31;-3.60;99.90
59208;DHT22;44977;53.132;6.408;2024-01-10T02:39:31;-3.60;99.90
59208;DHT22;44977;53.132;6.408;2024-01-10T02:44:32;-3.60;99.90
59208;DHT22;44977;53.132;6.408;2024-01-10T02:49:33;-3.60;99.90
59208;DHT22;44977;53.132;6.408;2024-01-10T02:54:34;-3.60;99.90
59208;DHT22;44977;53.132;6.408;2024-01-10T02:59:35;-3.60;99.90
59208;DHT22;44977;53.132;6.408;2024-01-10T03:04:35;-3.50;99.90
59208;DHT22;44977;53.132;6.408;2024-01-10T03:09:36;-3.50;99.90
59208;DHT22;44977;53.132;6.408;2024-01-10T03:14:37;-3.50;99.90
59208;DHT22;44977;53.132;6.408;2024-01-10T03:19:37;-3.50;99.90
59208;DHT22;44977;53.132;6.408;2024-01-10T03:24:42;-3.50;99.90
59208;DHT22;44977;53.132;6.408;2024-01-10T03:29:43;-3.50;99.90
59208;DHT22;44977;53.132;6.408;2024-01-10T03:34:44;-3.50;99.90
59208;DHT22;44977;53.132;6.408;2024-01-10T03:39:45;-3.50;99.90
59208;DHT22;44977;53.132;6.408;2024-01-10T03:44:45;-3.50;99.90
59208;DHT22;44977;53.132;6.408;2024-01-10T03:49:46;-3.50;99.90
59208;DHT22;44977;53.132;6.408;2024-01-10T03:54:46;-3.50;99.90
59208;DHT22;44977;53.132;6.408;2024-01-10T03:59:47;-3.60;99.90
59208;DHT22;44977;53.132;6.408;2024-01-10T04:04:48;-3.60;99.90
59208;DHT22;44977;53.132;6.408;2024-01-10T04:09:48;-3.60;99.90
59208;DHT22;44977;53.132;6.408;2024-01-10T04:14:49;-3.60;99.90
59208;DHT22;44977;53.132;6.408;2024-01-10T04:19:50;-3.60;99.90
59208;DHT22;44977;53.132;6.408;2024-01-10T04:24:51;-3.60;99.90
59208;DHT22;44977;53.132;6.408;2024-01-10T04:29:52;-3.60;99.90
59208;DHT22;44977;53.132;6.408;2024-01-10T04:34:53;-3.60;99.90
59208;DHT22;44977;53.132;6.408;2024-01-10T04:39:53;-3.60;99.90
59208;DHT22;44977;53.132;6.408;2024-01-10T04:44:54;-3.60;99.90
59208;DHT22;44977;53.132;6.408;2024-01-10T04:49:55;-3.60;99.90
59208;DHT22;44977;53.132;6.408;2024-01-10T04:54:55;-3.60;99.90
59208;DHT22;44977;53.132;6.408;2024-01-10T04:59:56;-3.60;99.90
59208;DHT22;44977;53.132;6.408;2024-01-10T05:04:58;-3.70;99.90
59208;DHT22;44977;53.132;6.408;2024-01-10T05:09:59;-3.70;99.90
59208;DHT22;44977;53.132;6.408;2024-01-10T05:14:59;-3.70;99.90
59208;DHT22;44977;53.132;6.408;2024-01-10T05:20:00;-3.70;99.90
59208;DHT22;44977;53.132;6.408;2024-01-10T05:25:01;-3.70;99.90
59208;DHT22;44977;53.132;6.408;2024-01-10T05:30:02;-3.70;99.90
59208;DHT22;44977;53.132;6.408;2024-01-10T05:35:03;-3.70;99.90
59208;DHT22;44977;53.132;6.408;2024-01-10T05:40:06;-3.70;99.90
59208;DHT22;44977;53.132;6.408;2024-01-10T05:45:07;-3.80;99.90
59208;DHT22;44977;53.132;6.408;2024-01-10T05:50:08;-3.80;99.90
59208;DHT22;44977;53.132;6.408;2024-01-10T05:55:09;-3.80;99.90
59208;DHT22;44977;53.132;6.408;2024-01-10T06:00:10;-3.80;99.90
59208;DHT22;44977;53.132;6.408;2024-01-10T06:05:11;-3.80;99.90
59208;DHT22;44977;53.132;6.408;2024-01-10T06:10:12;-3.80;99.90
59208;DHT22;44977;53.132;6.408;2024-01-10T06:15:13;-3.80;99.90
59208;DHT22;44977;53.132;6.408;2024-01-10T06:20:14;-3.80;99.90
59208;DHT22;44977;53.132;6.408;2024-01-10T06:25:14;-3.80;99.90
59208;DHT22;44977;53.132;6.408;2024-01-10T06:30:16;-3.80;99.90
59208;DHT22;44977;53.132;6.408;2024-01-10T06:35:16;-3.80;99.90
59208;DHT22;44977;53.132;6.408;2024-01-10T06:40:17;-3.80;99.90
59208;DHT22;44977;53.132;6.408;2024-01-10T06:45:18;-3.80;99.90
59208;DHT22;44977;53.132;6.408;2024-01-10T06:50:20;-3.90;99.90
59208;DHT22;44977;53.132;6.408;2024-01-10T06:55:21;-3.90;99.90
59208;DHT22;44977;53.132;6.408;2024-01-10T07:00:24;-3.90;99.90
59208;DHT22;44977;53.132;6.408;2024-01-10T07:05:25;-3.90;99.90
59208;DHT22;44977;53.132;6.408;2024-01-10T07:10:26;-3.90;99.90
59208;DHT22;44977;53.132;6.408;2024-01-10T07:15:28;-3.90;99.90
59208;DHT22;44977;53.132;6.408;2024-01-10T07:20:28;-3.90;99.90
59208;DHT22;44977;53.132;6.408;2024-01-10T07:25:29;-3.90;99.90
59208;DHT22;44977;53.132;6.408;2024-01-10T07:30:30;-3.90;99.90
59208;DHT22;44977;53.132;6.408;2024-01-10T07:35:33;-3.90;99.90
59208;DHT22;44977;53.132;6.408;2024-01-10T07:40:34;-3.90;99.90
59208;DHT22;44977;53.132;6.408;2024-01-10T07:45:35;-3.90;99.90
59208;DHT22;44977;53.132;6.408;2024-01-10T07:50:36;-3.90;99.90
59208;DHT22;44977;53.132;6.408;2024-01-10T07:55:37;-3.90;99.90
59208;DHT22;44977;53.132;6.408;2024-01-10T08:00:38;-3.90;99.90
59208;DHT22;44977;53.132;6.408;2024-01-10T08:05:39;-3.90;99.90
59208;DHT22;44977;53.132;6.408;2024-01-10T08:10:40;-3.90;99.90
59208;DHT22;44977;53.132;6.408;2024-01-10T08:15:40;-3.90;99.90
59208;DHT22;44977;53.132;6.408;2024-01-10T08:20:42;-3.90;99.90
59208;DHT22;44977;53.132;6.408;2024-01-10T08:25:43;-3.90;99.90
59208;DHT22;44977;53.132;6.408;2024-01-10T08:30:44;-3.90;99.90
59208;DHT22;44977;53.132;6.408;2024-01-10T08:35:45;-3.90;99.90
59208;DHT22;44977;53.132;6.408;2024-01-10T08:40:46;-3.80;99.90
59208;DHT22;44977;53.132;6.408;2024-01-10T08:45:48;-3.80;99.90
59208;DHT22;44977;53.132;6.408;2024-01-10T08:50:49;-3.70;99.90
59208;DHT22;44977;53.132;6.408;2024-01-10T08:55:50;-3.70;99.90
59208;DHT22;44977;53.132;6.408;2024-01-10T09:00:51;-3.60;99.90
59208;DHT22;44977;53.132;6.408;2024-01-10T09:05:51;-3.50;99.90
59208;DHT22;44977;53.132;6.408;2024-01-10T09:10:52;-3.40;99.90
59208;DHT22;44977;53.132;6.408;2024-01-10T09:15:53;-3.40;99.90
59208;DHT22;44977;53.132;6.408;2024-01-10T09:20:53;-3.20;99.90
59208;DHT22;44977;53.132;6.408;2024-01-10T09:25:54;-3.00;99.90
59208;DHT22;44977;53.132;6.408;2024-01-10T09:30:55;-2.80;99.90
59208;DHT22;44977;53.132;6.408;2024-01-10T09:35:55;-2.70;99.90
59208;DHT22;44977;53.132;6.408;2024-01-10T09:40:59;-2.50;99.90
59208;DHT22;44977;53.132;6.408;2024-01-10T09:46:03;-2.20;99.90
59208;DHT22;44977;53.132;6.408;2024-01-10T09:51:07;-2.10;99.90
59208;DHT22;44977;53.132;6.408;2024-01-10T09:56:08;-1.90;99.90
59208;DHT22;44977;53.132;6.408;2024-01-10T10:01:10;-1.70;99.90
59208;DHT22;44977;53.132;6.408;2024-01-10T10:06:11;-1.60;99.90
59208;DHT22;44977;53.132;6.408;2024-01-10T10:11:12;-1.40;99.90
59208;DHT22;44977;53.132;6.408;2024-01-10T10:16:23;-1.10;99.90
59208;DHT22;44977;53.132;6.408;2024-01-10T10:21:27;-1.00;99.90
59208;DHT22;44977;53.132;6.408;2024-01-10T10:26:28;-0.90;99.90
59208;DHT22;44977;53.132;6.408;2024-01-10T10:31:32;-0.70;99.90
59208;DHT22;44977;53.132;6.408;2024-01-10T10:36:33;-0.60;99.90
59208;DHT22;44977;53.132;6.408;2024-01-10T10:41:35;-0.50;99.90
59208;DHT22;44977;53.132;6.408;2024-01-10T10:46:37;-0.60;99.90
59208;DHT22;44977;53.132;6.408;2024-01-10T10:51:39;-0.60;99.90
59208;DHT22;44977;53.132;6.408;2024-01-10T10:56:40;-0.70;99.90
59208;DHT22;44977;53.132;6.408;2024-01-10T11:01:43;-0.70;99.90
59208;DHT22;44977;53.132;6.408;2024-01-10T11:06:45;-0.70;99.90
59208;DHT22;44977;53.132;6.408;2024-01-10T11:12:05;-0.80;99.90
59208;DHT22;44977;53.132;6.408;2024-01-10T11:17:19;-0.80;99.90
59208;DHT22;44977;53.132;6.408;2024-01-10T11:22:56;-0.80;99.90
59208;DHT22;44977;53.132;6.408;2024-01-10T11:28:07;-0.80;99.90
59208;DHT22;44977;53.132;6.408;2024-01-10T11:33:23;-0.90;99.90
59208;DHT22;44977;53.132;6.408;2024-01-10T11:38:23;-0.90;99.90
59208;DHT22;44977;53.132;6.408;2024-01-10T11:43:27;-0.90;99.90
59208;DHT22;44977;53.132;6.408;2024-01-10T11:48:29;-0.80;99.90
59208;DHT22;44977;53.132;6.408;2024-01-10T11:53:44;-0.80;99.90
59208;DHT22;44977;53.132;6.408;2024-01-10T11:59:05;-0.90;99.90
59208;DHT22;44977;53.132;6.408;2024-01-10T12:04:09;-0.80;99.90
59208;DHT22;44977;53.132;6.408;2024-01-10T12:09:12;-0.80;99.90
59208;DHT22;44977;53.132;6.408;2024-01-10T12:14:13;-0.80;99.90
59208;DHT22;44977;53.132;6.408;2024-01-10T12:19:15;-0.80;99.90
59208;DHT22;44977;53.132;6.408;2024-01-10T12:24:15;-0.80;99.90
59208;DHT22;44977;53.132;6.408;2024-01-10T12:29:18;-0.80;99.90
59208;DHT22;44977;53.132;6.408;2024-01-10T12:34:20;-0.70;99.90
59208;DHT22;44977;53.132;6.408;2024-01-10T12:39:24;-0.70;99.90
59208;DHT22;44977;53.132;6.408;2024-01-10T12:44:30;-0.60;99.90
59208;DHT22;44977;53.132;6.408;2024-01-10T12:49:31;-0.60;99.90
59208;DHT22;44977;53.132;6.408;2024-01-10T12:54:32;-0.60;99.90
59208;DHT22;44977;53.132;6.408;2024-01-10T12:59:33;-0.60;99.90
59208;DHT22;44977;53.132;6.408;2024-01-10T13:04:34;-0.50;99.90
59208;DHT22;44977;53.132;6.408;2024-01-10T13:09:34;-0.50;99.90
59208;DHT22;44977;53.132;6.408;2024-01-10T13:14:35;-0.50;99.90
59208;DHT22;44977;53.132;6.408;2024-01-10T13:19:36;-0.40;99.90
59208;DHT22;44977;53.132;6.408;2024-01-10T13:24:37;-0.30;99.90
59208;DHT22;44977;53.132;6.408;2024-01-10T13:29:38;-0.20;99.90
59208;DHT22;44977;53.132;6.408;2024-01-10T13:34:38;-0.20;99.90
59208;DHT22;44977;53.132;6.408;2024-01-10T13:39:41;-0.10;99.90
59208;DHT22;44977;53.132;6.408;2024-01-10T13:44:42;-0.20;99.90
59208;DHT22;44977;53.132;6.408;2024-01-10T13:49:42;-0.20;99.90
59208;DHT22;44977;53.132;6.408;2024-01-10T13:54:43;-0.20;99.90
59208;DHT22;44977;53.132;6.408;2024-01-10T13:59:44;-0.20;99.90
59208;DHT22;44977;53.132;6.408;2024-01-10T14:04:45;-0.20;99.90
59208;DHT22;44977;53.132;6.408;2024-01-10T14:09:46;-0.20;99.90
59208;DHT22;44977;53.132;6.408;2024-01-10T14:14:46;-0.20;99.90
59208;DHT22;44977;53.132;6.408;2024-01-10T14:19:47;-0.20;99.90
59208;DHT22;44977;53.132;6.408;2024-01-10T14:24:50;-0.20;99.90
59208;DHT22;44977;53.132;6.408;2024-01-10T14:29:51;-0.20;99.90
59208;DHT22;44977;53.132;6.408;2024-01-10T14:34:51;-0.20;99.90
59208;DHT22;44977;53.132;6.408;2024-01-10T14:39:52;-0.30;99.90
59208;DHT22;44977;53.132;6.408;2024-01-10T14:44:53;-0.30;99.90
59208;DHT22;44977;53.132;6.408;2024-01-10T14:49:53;-0.40;99.90
59208;DHT22;44977;53.132;6.408;2024-01-10T14:54:54;-0.40;99.90
59208;DHT22;44977;53.132;6.408;2024-01-10T14:59:55;-0.50;99.90
59208;DHT22;44977;53.132;6.408;2024-01-10T15:04:55;-0.60;99.90
59208;DHT22;44977;53.132;6.408;2024-01-10T15:09:56;-0.60;99.90
59208;DHT22;44977;53.132;6.408;2024-01-10T15:14:59;-0.70;99.90
59208;DHT22;44977;53.132;6.408;2024-01-10T15:20:03;-0.70;99.90
59208;DHT22;44977;53.132;6.408;2024-01-10T15:25:05;-0.80;99.90
59208;DHT22;44977;53.132;6.408;2024-01-10T15:30:06;-0.80;99.90
59208;DHT22;44977;53.132;6.408;2024-01-10T15:35:07;-0.90;99.90
59208;DHT22;44977;53.132;6.408;2024-01-10T15:40:09;-0.90;99.90
59208;DHT22;44977;53.132;6.408;2024-01-10T15:45:14;-1.00;99.90
59208;DHT22;44977;53.132;6.408;2024-01-10T15:50:15;-1.00;99.90
59208;DHT22;44977;53.132;6.408;2024-01-10T15:55:16;-1.10;99.90
59208;DHT22;44977;53.132;6.408;2024-01-10T16:00:17;-1.10;99.90
59208;DHT22;44977;53.132;6.408;2024-01-10T16:05:17;-1.20;99.90
59208;DHT22;44977;53.132;6.408;2024-01-10T16:10:18;-1.30;99.90
59208;DHT22;44977;53.132;6.408;2024-01-10T16:15:19;-1.30;99.90
59208;DHT22;44977;53.132;6.408;2024-01-10T16:20:20;-1.30;99.90
59208;DHT22;44977;53.132;6.408;2024-01-10T16:25:20;-1.40;99.90
59208;DHT22;44977;53.132;6.408;2024-01-10T16:30:21;-1.40;99.90
59208;DHT22;44977;53.132;6.408;2024-01-10T16:35:22;-1.50;99.90
59208;DHT22;44977;53.132;6.408;2024-01-10T16:40:22;-1.50;99.90
59208;DHT22;44977;53.132;6.408;2024-01-10T16:45:23;-1.60;99.90
59208;DHT22;44977;53.132;6.408;2024-01-10T16:50:24;-1.60;99.90
59208;DHT22;44977;53.132;6.408;2024-01-10T16:55:25;-1.60;99.90
59208;DHT22;44977;53.132;6.408;2024-01-10T17:00:27;-1.70;99.90
59208;DHT22;44977;53.132;6.408;2024-01-10T17:05:28;-1.70;99.90
59208;DHT22;44977;53.132;6.408;2024-01-10T17:10:29;-1.70;99.90
59208;DHT22;44977;53.132;6.408;2024-01-10T17:15:29;-1.70;99.90
59208;DHT22;44977;53.132;6.408;2024-01-10T17:20:30;-1.80;99.90
59208;DHT22;44977;53.132;6.408;2024-01-10T17:25:31;-1.80;99.90
59208;DHT22;44977;53.132;6.408;2024-01-10T17:30:31;-1.80;99.90
59208;DHT22;44977;53.132;6.408;2024-01-10T17:35:32;-1.90;99.90
59208;DHT22;44977;53.132;6.408;2024-01-10T17:40:33;-1.90;99.90
59208;DHT22;44977;53.132;6.408;2024-01-10T17:45:34;-1.90;99.90
59208;DHT22;44977;53.132;6.408;2024-01-10T17:50:36;-2.00;99.90
59208;DHT22;44977;53.132;6.408;2024-01-10T17:55:36;-2.00;99.90
59208;DHT22;44977;53.132;6.408;2024-01-10T18:00:37;-2.00;99.90
59208;DHT22;44977;53.132;6.408;2024-01-10T18:05:38;-2.00;99.90
59208;DHT22;44977;53.132;6.408;2024-01-10T18:10:39;-2.10;99.90
59208;DHT22;44977;53.132;6.408;2024-01-10T18:15:40;-2.10;99.90
59208;DHT22;44977;53.132;6.408;2024-01-10T18:20:42;-2.10;99.90
59208;DHT22;44977;53.132;6.408;2024-01-10T18:25:43;-2.10;99.90
59208;DHT22;44977;53.132;6.408;2024-01-10T18:30:47;-2.20;99.90
59208;DHT22;44977;53.132;6.408;2024-01-10T18:35:47;-2.20;99.90
59208;DHT22;44977;53.132;6.408;2024-01-10T18:40:51;-2.20;99.90
59208;DHT22;44977;53.132;6.408;2024-01-10T18:45:52;-2.30;99.90
59208;DHT22;44977;53.132;6.408;2024-01-10T18:50:53;-2.30;99.90
59208;DHT22;44977;53.132;6.408;2024-01-10T18:55:55;-2.30;99.90
59208;DHT22;44977;53.132;6.408;2024-01-10T19:00:55;-2.40;99.90
59208;DHT22;44977;53.132;6.408;2024-01-10T19:05:56;-2.40;99.90
59208;DHT22;44977;53.132;6.408;2024-01-10T19:10:57;-2.40;99.90
59208;DHT22;44977;53.132;6.408;2024-01-10T19:15:58;-2.50;99.90
59208;DHT22;44977;53.132;6.408;2024-01-10T19:20:59;-2.50;99.90
59208;DHT22;44977;53.132;6.408;2024-01-10T19:26:00;-2.50;99.90
59208;DHT22;44977;53.132;6.408;2024-01-10T19:31:01;-2.50;99.90
59208;DHT22;44977;53.132;6.408;2024-01-10T19:36:02;-2.60;99.90
59208;DHT22;44977;53.132;6.408;2024-01-10T19:41:02;-2.60;99.90
59208;DHT22;44977;53.132;6.408;2024-01-10T19:46:03;-2.60;99.90
59208;DHT22;44977;53.132;6.408;2024-01-10T19:51:04;-2.60;99.90
59208;DHT22;44977;53.132;6.408;2024-01-10T19:56:05;-2.60;99.90
59208;DHT22;44977;53.132;6.408;2024-01-10T20:01:06;-2.70;99.90
59208;DHT22;44977;53.132;6.408;2024-01-10T20:06:07;-2.70;99.90
59208;DHT22;44977;53.132;6.408;2024-01-10T20:11:08;-2.70;99.90
59208;DHT22;44977;53.132;6.408;2024-01-10T20:16:09;-2.70;99.90
59208;DHT22;44977;53.132;6.408;2024-01-10T20:21:14;-2.80;99.90
59208;DHT22;44977;53.132;6.408;2024-01-10T20:26:15;-2.80;99.90
59208;DHT22;44977;53.132;6.408;2024-01-10T20:31:16;-2.80;99.90
59208;DHT22;44977;53.132;6.408;2024-01-10T20:36:17;-2.80;99.90
59208;DHT22;44977;53.132;6.408;2024-01-10T20:41:18;-2.80;99.90
59208;DHT22;44977;53.132;6.408;2024-01-10T20:46:19;-2.80;99.90
59208;DHT22;44977;53.132;6.408;2024-01-10T20:51:20;-2.80;99.90
59208;DHT22;44977;53.132;6.408;2024-01-10T20:56:23;-2.90;99.90
59208;DHT22;44977;53.132;6.408;2024-01-10T21:01:24;-2.90;99.90
59208;DHT22;44977;53.132;6.408;2024-01-10T21:06:25;-2.90;99.90
59208;DHT22;44977;53.132;6.408;2024-01-10T21:11:25;-2.90;99.90
59208;DHT22;44977;53.132;6.408;2024-01-10T21:16:26;-3.00;99.90
59208;DHT22;44977;53.132;6.408;2024-01-10T21:21:27;-3.00;99.90
59208;DHT22;44977;53.132;6.408;2024-01-10T21:26:28;-3.00;99.90
59208;DHT22;44977;53.132;6.408;2024-01-10T21:31:29;-3.00;99.90
59208;DHT22;44977;53.132;6.408;2024-01-10T21:36:30;-3.00;99.90
59208;DHT22;44977;53.132;6.408;2024-01-10T21:41:31;-3.10;99.90
59208;DHT22;44977;53.132;6.408;2024-01-10T21:46:32;-3.10;99.90
59208;DHT22;44977;53.132;6.408;2024-01-10T21:51:33;-3.10;99.90
59208;DHT22;44977;53.132;6.408;2024-01-10T21:56:34;-3.20;99.90
59208;DHT22;44977;53.132;6.408;2024-01-10T22:01:34;-3.20;99.90
59208;DHT22;44977;53.132;6.408;2024-01-10T22:06:35;-3.20;99.90
59208;DHT22;44977;53.132;6.408;2024-01-10T22:11:36;-3.30;99.90
59208;DHT22;44977;53.132;6.408;2024-01-10T22:16:36;-3.30;99.90
59208;DHT22;44977;53.132;6.408;2024-01-10T22:21:37;-3.30;99.90
59208;DHT22;44977;53.132;6.408;2024-01-10T22:26:38;-3.40;99.90
59208;DHT22;44977;53.132;6.408;2024-01-10T22:31:39;-3.50;99.90
59208;DHT22;44977;53.132;6.408;2024-01-10T22:36:40;-3.50;99.90
59208;DHT22;44977;53.132;6.408;2024-01-10T22:41:40;-3.50;99.90
59208;DHT22;44977;53.132;6.408;2024-01-10T22:46:41;-3.50;99.90
59208;DHT22;44977;53.132;6.408;2024-01-10T22:51:42;-3.60;99.90
59208;DHT22;44977;53.132;6.408;2024-01-10T22:56:42;-3.60;99.90
59208;DHT22;44977;53.132;6.408;2024-01-10T23:01:43;-3.60;99.90
59208;DHT22;44977;53.132;6.408;2024-01-10T23:06:44;-3.60;99.90
59208;DHT22;44977;53.132;6.408;2024-01-10T23:11:44;-3.60;99.90
59208;DHT22;44977;53.132;6.408;2024-01-10T23:16:45;-3.60;99.90
59208;DHT22;44977;53.132;6.408;2024-01-10T23:21:46;-3.70;99.90
59208;DHT22;44977;53.132;6.408;2024-01-10T23:26:46;-3.70;99.90
59208;DHT22;44977;53.132;6.408;2024-01-10T23:31:50;-3.70;99.90
59208;DHT22;44977;53.132;6.408;2024-01-10T23:36:51;-3.70;99.90
59208;DHT22;44977;53.132;6.408;2024-01-10T23:41:51;-3.70;99.90
59208;DHT22;44977;53.132;6.408;2024-01-10T23:46:52;-3.70;99.90
59208;DHT22;44977;53.132;6.408;2024-01-10T23:51:53;-3.80;99.90
59208;DHT22;44977;53.132;6.408;2024-01-10T23:56:53;-3.80;99.90
